createdAt,value
2023-03-22T00:00:15.374Z,11.50
2023-03-22T00:02:42.444Z,11.50
2023-03-22T00:05:10.622Z,11.50
2023-03-22T00:07:37.794Z,11.50
2023-03-22T00:10:05.843Z,11.60
2023-03-22T00:12:32.660Z,11.60
2023-03-22T00:15:00.247Z,11.60
2023-03-22T00:17:27.230Z,11.60
2023-03-22T00:19:54.770Z,11.70
2023-03-22T00:22:21.854Z,11.60
2023-03-22T00:24:48.895Z,11.60
2023-03-22T00:27:15.967Z,11.60
2023-03-22T00:29:42.965Z,11.60
2023-03-22T00:32:09.814Z,11.70
2023-03-22T00:34:36.750Z,11.70
2023-03-22T00:37:03.739Z,11.70
2023-03-22T00:39:30.644Z,11.70
2023-03-22T00:41:57.605Z,11.70
2023-03-22T00:44:27.508Z,11.70
2023-03-22T00:46:54.506Z,11.70
2023-03-22T00:49:22.010Z,11.70
2023-03-22T00:51:48.840Z,11.60
2023-03-22T00:54:17.407Z,11.60
2023-03-22T00:56:45.539Z,11.60
2023-03-22T00:59:13.590Z,11.60
2023-03-22T01:01:40.634Z,11.60
2023-03-22T01:04:07.579Z,11.40
2023-03-22T01:06:34.628Z,11.60
2023-03-22T01:09:01.666Z,11.60
2023-03-22T01:11:28.547Z,11.60
2023-03-22T01:13:55.920Z,11.60
2023-03-22T01:16:22.828Z,11.70
2023-03-22T01:18:49.753Z,11.60
2023-03-22T01:21:18.498Z,11.60
2023-03-22T01:23:45.383Z,11.60
2023-03-22T01:26:12.294Z,11.60
2023-03-22T01:28:40.692Z,11.60
2023-03-22T01:31:07.781Z,11.60
2023-03-22T01:33:34.899Z,11.60
2023-03-22T01:36:01.917Z,11.60
2023-03-22T01:38:29.089Z,11.60
2023-03-22T01:40:57.190Z,11.50
2023-03-22T01:43:24.084Z,11.60
2023-03-22T01:45:51.823Z,11.60
2023-03-22T01:48:30.299Z,11.50
2023-03-22T01:51:04.595Z,11.50
2023-03-22T01:53:34.636Z,11.70
2023-03-22T01:56:01.785Z,11.60
2023-03-22T01:58:28.579Z,11.60
2023-03-22T02:00:55.667Z,11.60
2023-03-22T02:04:03.880Z,11.70
2023-03-22T02:06:38.137Z,11.70
2023-03-22T02:09:06.254Z,11.70
2023-03-22T02:11:35.805Z,11.60
2023-03-22T02:14:27.393Z,11.60
2023-03-22T02:17:27.658Z,11.70
2023-03-22T02:20:22.445Z,11.70
2023-03-22T02:22:53.370Z,11.60
2023-03-22T02:25:34.136Z,11.60
2023-03-22T02:28:33.611Z,11.60
2023-03-22T02:31:29.109Z,11.50
2023-03-22T02:34:17.613Z,11.50
2023-03-22T02:37:02.170Z,11.30
2023-03-22T02:39:57.915Z,11.30
2023-03-22T02:42:50.766Z,11.20
2023-03-22T02:45:27.817Z,11.10
2023-03-22T02:48:09.864Z,11.10
2023-03-22T02:51:10.760Z,11.10
2023-03-22T02:53:42.555Z,11.10
2023-03-22T02:56:26.378Z,11.10
2023-03-22T02:59:01.899Z,11.20
2023-03-22T03:01:41.447Z,11.20
2023-03-22T03:04:11.581Z,11.20
2023-03-22T03:06:40.217Z,11.20
2023-03-22T03:09:07.250Z,11.20
2023-03-22T03:11:34.068Z,11.20
2023-03-22T03:14:00.860Z,11.20
2023-03-22T03:16:29.471Z,11.30
2023-03-22T03:19:02.949Z,11.40
2023-03-22T03:21:48.603Z,11.30
2023-03-22T03:24:23.208Z,11.30
2023-03-22T03:26:55.218Z,11.30
2023-03-22T03:29:28.486Z,11.20
2023-03-22T03:32:08.314Z,11.20
2023-03-22T03:34:49.710Z,11.20
2023-03-22T03:37:44.853Z,11.20
2023-03-22T03:40:13.840Z,11.20
2023-03-22T03:42:46.718Z,11.10
2023-03-22T03:45:14.444Z,11.10
2023-03-22T03:47:42.541Z,11.10
2023-03-22T03:50:12.429Z,11.10
2023-03-22T03:52:39.226Z,11.10
2023-03-22T03:55:07.228Z,11.00
2023-03-22T03:57:34.285Z,11.00
2023-03-22T04:00:01.246Z,11.00
2023-03-22T04:02:28.210Z,10.90
2023-03-22T04:04:55.022Z,10.90
2023-03-22T04:07:21.824Z,10.90
2023-03-22T04:09:48.779Z,10.90
2023-03-22T04:12:15.823Z,10.90
2023-03-22T04:14:42.656Z,10.90
2023-03-22T04:17:09.934Z,10.90
2023-03-22T04:19:36.861Z,10.90
2023-03-22T04:22:03.719Z,10.90
2023-03-22T04:24:30.541Z,11.00
2023-03-22T04:26:57.509Z,10.90
2023-03-22T04:29:25.172Z,10.90
2023-03-22T04:31:53.163Z,10.80
2023-03-22T04:34:20.393Z,10.80
2023-03-22T04:36:47.247Z,10.80
2023-03-22T04:39:14.158Z,10.80
2023-03-22T04:41:41.014Z,10.70
2023-03-22T04:44:08.382Z,10.70
2023-03-22T04:46:36.096Z,10.70
2023-03-22T04:49:03.596Z,10.80
2023-03-22T04:51:32.013Z,10.80
2023-03-22T04:53:59.041Z,10.80
2023-03-22T04:56:26.363Z,10.80
2023-03-22T04:58:53.310Z,10.80
2023-03-22T05:01:20.286Z,10.70
2023-03-22T05:03:47.691Z,10.70
2023-03-22T05:06:14.758Z,10.60
2023-03-22T05:08:41.780Z,10.60
2023-03-22T05:11:20.330Z,10.60
2023-03-22T05:13:47.411Z,10.60
2023-03-22T05:16:14.435Z,10.60
2023-03-22T05:18:45.867Z,10.60
2023-03-22T05:21:15.501Z,10.60
2023-03-22T05:23:42.947Z,10.60
2023-03-22T05:26:10.539Z,10.60
2023-03-22T05:28:37.674Z,10.60
2023-03-22T05:31:05.789Z,10.60
2023-03-22T05:33:34.801Z,10.60
2023-03-22T05:36:01.664Z,10.50
2023-03-22T05:38:28.726Z,10.50
2023-03-22T05:40:55.801Z,10.50
2023-03-22T05:43:22.692Z,10.50
2023-03-22T05:45:49.662Z,10.50
2023-03-22T05:48:17.085Z,10.50
2023-03-22T05:50:43.992Z,10.50
2023-03-22T05:53:24.671Z,10.50
2023-03-22T05:55:53.032Z,10.50
2023-03-22T05:58:20.270Z,10.50
2023-03-22T06:00:50.016Z,10.50
2023-03-22T06:03:17.078Z,10.50
2023-03-22T06:05:44.210Z,10.50
2023-03-22T06:08:11.135Z,10.50
2023-03-22T06:10:38.586Z,10.50
2023-03-22T06:13:05.761Z,10.50
2023-03-22T06:15:32.752Z,10.50
2023-03-22T06:17:59.708Z,10.50
2023-03-22T06:20:26.872Z,10.50
2023-03-22T06:22:53.762Z,10.60
2023-03-22T06:25:21.043Z,10.60
2023-03-22T06:27:49.049Z,10.50
2023-03-22T06:30:16.078Z,10.50
2023-03-22T06:32:43.006Z,10.50
2023-03-22T06:35:10.091Z,10.50
2023-03-22T06:37:37.162Z,10.50
2023-03-22T06:40:04.589Z,10.50
2023-03-22T06:42:31.566Z,10.50
2023-03-22T06:44:58.861Z,10.50
2023-03-22T06:47:26.521Z,10.50
2023-03-22T06:49:53.907Z,10.60
2023-03-22T06:52:22.740Z,10.60
2023-03-22T06:54:49.650Z,10.60
2023-03-22T06:57:16.518Z,10.60
2023-03-22T06:59:43.309Z,10.60
2023-03-22T07:02:12.174Z,10.60
2023-03-22T07:04:39.172Z,10.70
2023-03-22T07:07:06.292Z,10.70
2023-03-22T07:09:33.191Z,10.80
2023-03-22T07:12:00.269Z,10.80
2023-03-22T07:14:27.429Z,10.90
2023-03-22T07:16:54.435Z,10.90
2023-03-22T07:19:21.384Z,11.00
2023-03-22T07:21:48.533Z,11.00
2023-03-22T07:24:15.508Z,11.00
2023-03-22T07:26:42.551Z,11.10
2023-03-22T07:29:09.370Z,11.10
2023-03-22T07:31:36.557Z,11.10
2023-03-22T07:34:04.223Z,11.20
2023-03-22T07:36:31.154Z,11.20
2023-03-22T07:38:58.328Z,11.20
2023-03-22T07:41:27.311Z,11.20
2023-03-22T07:44:02.188Z,11.20
2023-03-22T07:46:34.769Z,11.30
2023-03-22T07:49:07.870Z,11.30
2023-03-22T07:51:34.660Z,11.20
2023-03-22T07:54:02.077Z,11.20
2023-03-22T07:56:28.980Z,11.30
2023-03-22T07:58:56.017Z,11.30
2023-03-22T08:01:22.904Z,11.30
2023-03-22T08:03:49.731Z,11.30
2023-03-22T08:06:18.904Z,11.30
2023-03-22T08:08:46.037Z,11.30
2023-03-22T08:11:13.085Z,11.30
2023-03-22T08:13:40.413Z,11.40
2023-03-22T08:16:07.396Z,11.40
2023-03-22T08:18:34.326Z,11.40
2023-03-22T08:21:01.326Z,11.40
2023-03-22T08:23:40.586Z,11.40
2023-03-22T08:26:08.179Z,11.50
2023-03-22T08:28:35.650Z,11.50
2023-03-22T08:31:02.580Z,11.60
2023-03-22T08:33:29.417Z,11.60
2023-03-22T08:36:16.792Z,11.60
2023-03-22T08:38:45.436Z,11.60
2023-03-22T08:41:13.132Z,11.70
2023-03-22T08:43:40.245Z,11.60
2023-03-22T08:46:07.277Z,11.70
2023-03-22T08:48:35.810Z,11.70
2023-03-22T08:51:03.604Z,11.80
2023-03-22T08:53:30.777Z,11.80
2023-03-22T08:56:02.302Z,11.90
2023-03-22T08:58:29.216Z,11.90
2023-03-22T09:00:56.136Z,11.90
2023-03-22T09:03:25.014Z,12.00
2023-03-22T09:05:51.910Z,12.00
2023-03-22T09:08:19.927Z,12.00
2023-03-22T09:10:51.607Z,12.00
2023-03-22T09:13:19.282Z,12.00
2023-03-22T09:15:46.467Z,12.10
2023-03-22T09:18:13.958Z,12.00
2023-03-22T09:20:41.043Z,12.00
2023-03-22T09:23:08.153Z,12.00
2023-03-22T09:25:35.202Z,12.10
2023-03-22T09:28:02.477Z,12.10
2023-03-22T09:30:29.526Z,12.10
2023-03-22T09:32:56.461Z,12.20
2023-03-22T09:35:23.771Z,12.10
2023-03-22T09:37:53.494Z,12.30
2023-03-22T09:40:21.745Z,12.40
2023-03-22T09:42:49.867Z,12.50
2023-03-22T09:45:24.900Z,12.60
2023-03-22T09:47:53.322Z,12.60
2023-03-22T09:50:26.451Z,12.70
2023-03-22T09:52:53.528Z,12.80
2023-03-22T09:55:33.680Z,12.90
2023-03-22T09:58:31.849Z,13.00
2023-03-22T10:01:31.863Z,13.10
2023-03-22T10:04:08.043Z,13.20
2023-03-22T10:06:34.872Z,13.30
2023-03-22T10:09:14.937Z,13.30
2023-03-22T10:11:46.718Z,13.40
2023-03-22T10:14:38.296Z,13.40
2023-03-22T10:17:09.058Z,13.40
2023-03-22T10:20:01.371Z,13.50
2023-03-22T10:22:31.475Z,13.50
2023-03-22T10:24:58.319Z,13.50
2023-03-22T10:27:25.503Z,13.60
2023-03-22T10:29:59.816Z,13.60
2023-03-22T10:32:56.740Z,13.70
2023-03-22T10:35:24.575Z,13.70
2023-03-22T10:37:51.448Z,13.70
2023-03-22T10:40:24.958Z,13.70
2023-03-22T10:43:07.891Z,13.70
2023-03-22T10:45:35.465Z,13.60
2023-03-22T10:48:03.876Z,13.60
2023-03-22T10:50:33.639Z,13.60
2023-03-22T10:53:17.053Z,13.60
2023-03-22T10:55:44.273Z,13.50
2023-03-22T10:58:12.612Z,13.50
2023-03-22T11:00:47.584Z,13.50
2023-03-22T11:03:26.467Z,13.40
2023-03-22T11:06:03.104Z,13.30
2023-03-22T11:08:30.140Z,13.20
2023-03-22T11:11:00.502Z,13.20
2023-03-22T11:13:27.598Z,13.30
2023-03-22T11:16:04.363Z,13.50
2023-03-22T11:18:32.923Z,13.70
2023-03-22T11:21:11.146Z,14.00
2023-03-22T11:23:39.316Z,14.10
2023-03-22T11:26:09.051Z,14.40
2023-03-22T11:28:45.791Z,14.60
2023-03-22T11:31:14.067Z,14.90
2023-03-22T11:33:58.386Z,15.00
2023-03-22T11:36:28.131Z,15.20
2023-03-22T11:39:02.039Z,15.30
2023-03-22T11:41:29.975Z,15.40
2023-03-22T11:43:58.491Z,15.50
2023-03-22T11:46:26.356Z,15.50
2023-03-22T11:48:57.688Z,15.40
2023-03-22T11:51:37.908Z,15.50
2023-03-22T11:54:35.122Z,15.60
2023-03-22T11:57:04.406Z,15.60
2023-03-22T11:59:39.067Z,15.50
2023-03-22T12:02:33.837Z,15.60
2023-03-22T12:05:07.477Z,15.50
2023-03-22T12:07:34.878Z,15.50
2023-03-22T12:10:06.529Z,15.30
2023-03-22T12:12:37.062Z,15.30
2023-03-22T12:15:06.152Z,15.30
2023-03-22T12:18:16.785Z,15.30
2023-03-22T12:21:01.361Z,15.30
2023-03-22T12:23:32.907Z,15.20
2023-03-22T12:26:06.409Z,15.10
2023-03-22T12:28:40.515Z,15.00
2023-03-22T12:31:11.113Z,15.00
2023-03-22T12:33:44.716Z,15.10
2023-03-22T12:36:15.270Z,15.10
2023-03-22T12:38:58.468Z,15.10
2023-03-22T12:41:38.532Z,15.20
2023-03-22T12:44:17.367Z,15.20
2023-03-22T12:46:54.220Z,15.30
2023-03-22T12:49:34.423Z,15.60
2023-03-22T12:52:11.468Z,15.70
2023-03-22T12:54:38.418Z,16.00
2023-03-22T12:57:06.225Z,16.20
2023-03-22T12:59:33.162Z,16.40
2023-03-22T13:02:05.774Z,16.60
2023-03-22T13:04:35.403Z,16.70
2023-03-22T13:07:16.417Z,16.90
2023-03-22T13:09:50.950Z,17.10
2023-03-22T13:12:17.752Z,17.00
2023-03-22T13:14:51.206Z,17.10
2023-03-22T13:17:24.689Z,17.10
2023-03-22T13:19:54.704Z,17.00
2023-03-22T13:22:43.881Z,16.90
2023-03-22T13:25:12.593Z,16.80
2023-03-22T13:27:41.893Z,16.70
2023-03-22T13:30:21.754Z,16.60
2023-03-22T13:32:57.280Z,16.60
2023-03-22T13:35:28.665Z,16.50
2023-03-22T13:38:09.203Z,16.40
2023-03-22T13:40:39.549Z,16.30
2023-03-22T13:43:28.584Z,16.10
2023-03-22T13:46:03.804Z,16.10
2023-03-22T13:48:42.450Z,16.00
2023-03-22T13:51:12.699Z,15.80
2023-03-22T13:53:41.826Z,15.70
2023-03-22T13:56:12.432Z,15.60
2023-03-22T13:58:49.375Z,15.60
2023-03-22T14:01:29.440Z,15.40
2023-03-22T14:04:01.287Z,15.30
2023-03-22T14:06:31.808Z,15.20
2023-03-22T14:09:13.585Z,15.30
2023-03-22T14:11:47.471Z,15.00
2023-03-22T14:14:24.840Z,14.90
2023-03-22T14:17:32.230Z,14.70
2023-03-22T14:20:01.751Z,14.70
